Time;durP1;ratioP1;P1;durP2;ratioP2;P2;SDS_P1;SDS_P2;PMS_P1;PMS_P2;Temp;Humidity;BMP_temperature;BMP_pressure;BME280_temperature;BME280_humidity;BME280_pressure;Samples;Min_cycle;Max_cycle;Signal;HPM_P1;HPM_P2
2021/12/05 00:19:58;;;;;;;;;;;4.30;99.90;;;;;;5059792;28;19920;-55
2021/12/05 00:22:28;;;;;;;;;;;4.20;99.90;;;;;;5088801;28;19967;-55
2021/12/05 00:24:58;;;;;;;;;;;4.10;99.90;;;;;;5111986;28;19971;-56
2021/12/05 00:27:28;;;;;;;;;;;4.20;99.90;;;;;;5096551;28;20271;-55
2021/12/05 00:30:05;;;;;;;;;;;4.30;99.90;;;;;;5093040;28;19940;-55
2021/12/05 00:32:42;;;;;;;;;;;4.40;99.90;;;;;;5092747;28;20378;-55
2021/12/05 00:46:41;;;;;;;;;;;4.70;99.90;;;;;;5092816;28;19926;-55
2021/12/05 01:03:02;;;;;;;;;;;4.50;99.90;;;;;;5109310;28;20391;-53
2021/12/05 01:11:10;;;;;;;;;;;4.50;99.90;;;;;;5091764;28;19927;-54
2021/12/05 01:13:43;;;;;;;;;;;4.50;99.90;;;;;;5093546;28;19930;-54
2021/12/05 01:16:12;;;;;;;;;;;4.40;99.90;;;;;;5092289;28;19932;-54
2021/12/05 01:18:40;;;;;;;;;;;4.50;99.90;;;;;;5092297;28;19946;-55
2021/12/05 01:21:12;;;;;;;;;;;4.60;99.90;;;;;;5092131;28;19924;-54
2021/12/05 01:23:46;;;;;;;;;;;4.40;99.90;;;;;;5111833;28;19924;-54
2021/12/05 01:26:18;;;;;;;;;;;4.40;99.90;;;;;;5091963;28;19924;-52
2021/12/05 01:29:00;;;;;;;;;;;4.60;99.90;;;;;;5092083;28;19924;-54
2021/12/05 01:31:35;;;;;;;;;;;4.70;99.90;;;;;;5091842;28;19932;-54
2021/12/05 01:34:15;;;;;;;;;;;4.60;99.90;;;;;;5120869;22;20047;-49
2021/12/05 01:36:51;;;;;;;;;;;4.50;99.90;;;;;;5071627;28;19931;-47
2021/12/05 01:39:32;;;;;;;;;;;4.50;99.90;;;;;;5060725;28;20313;-46
2021/12/05 01:53:28;;;;;;;;;;;4.50;99.90;;;;;;5032290;28;19933;-48
2021/12/05 02:09:50;;;;;;;;;;;4.10;99.90;;;;;;5052092;28;19936;-47
2021/12/05 02:15:23;;;;;;;;;;;4.20;99.90;;;;;;5052090;28;20374;-48
2021/12/05 02:31:57;;;;;;;;;;;4.40;99.90;;;;;;5055142;28;19927;-48
2021/12/05 02:34:33;;;;;;;;;;;4.30;99.90;;;;;;5053336;28;20433;-47
2021/12/05 02:37:30;;;;;;;;;;;4.20;99.90;;;;;;5035492;28;19925;-48
2021/12/05 02:40:19;;;;;;;;;;;4.20;99.90;;;;;;5048657;28;19963;-48
2021/12/05 02:42:49;;;;;;;;;;;4.30;99.90;;;;;;5055740;28;19932;-47
2021/12/05 02:45:16;;;;;;;;;;;4.40;99.90;;;;;;5053836;28;19925;-47
2021/12/05 02:47:49;;;;;;;;;;;4.50;99.90;;;;;;5039082;28;19929;-48
2021/12/05 02:50:17;;;;;;;;;;;4.40;99.90;;;;;;5042171;28;20310;-47
2021/12/05 02:52:45;;;;;;;;;;;4.20;99.90;;;;;;5054910;28;19932;-48
2021/12/05 02:55:13;;;;;;;;;;;4.10;99.90;;;;;;5055342;28;19971;-47
2021/12/05 02:57:53;;;;;;;;;;;3.90;99.90;;;;;;5055141;28;20321;-47
2021/12/05 03:00:33;;;;;;;;;;;3.70;99.90;;;;;;5036306;28;19972;-47
2021/12/05 03:03:00;;;;;;;;;;;3.50;99.90;;;;;;5042963;28;19963;-47
2021/12/05 03:05:28;;;;;;;;;;;3.70;99.90;;;;;;5043020;28;20391;-52
2021/12/05 03:08:00;;;;;;;;;;;3.80;99.90;;;;;;5054729;28;19925;-48
2021/12/05 03:10:28;;;;;;;;;;;3.60;99.90;;;;;;5053998;28;20322;-48
2021/12/05 03:12:55;;;;;;;;;;;3.50;99.90;;;;;;5049163;28;19979;-48
2021/12/05 03:15:22;;;;;;;;;;;3.40;99.90;;;;;;5034714;28;19929;-49
2021/12/05 03:17:49;;;;;;;;;;;3.50;99.90;;;;;;5042950;28;19979;-48
2021/12/05 03:20:16;;;;;;;;;;;3.20;99.90;;;;;;5048396;28;19925;-49
2021/12/05 03:22:43;;;;;;;;;;;3.10;99.90;;;;;;5054421;28;19929;-48
2021/12/05 03:25:11;;;;;;;;;;;3.20;99.90;;;;;;5054359;28;19978;-48
2021/12/05 03:27:39;;;;;;;;;;;3.20;99.90;;;;;;5052454;28;19987;-48
2021/12/05 03:30:07;;;;;;;;;;;3.10;99.90;;;;;;5053854;28;19936;-48
2021/12/05 03:32:34;;;;;;;;;;;3.20;99.90;;;;;;5034605;28;19925;-49
2021/12/05 03:35:01;;;;;;;;;;;3.30;99.90;;;;;;5050185;28;19924;-48
2021/12/05 03:37:28;;;;;;;;;;;3.40;99.90;;;;;;5054089;28;20563;-48
2021/12/05 03:39:55;;;;;;;;;;;3.30;99.90;;;;;;5053703;28;19970;-48
2021/12/05 03:42:23;;;;;;;;;;;3.30;99.90;;;;;;5052751;28;20391;-48
2021/12/05 03:44:50;;;;;;;;;;;3.50;99.90;;;;;;5038342;28;19940;-48
2021/12/05 03:47:18;;;;;;;;;;;3.40;99.90;;;;;;5036415;28;20399;-48
2021/12/05 03:49:45;;;;;;;;;;;3.30;99.90;;;;;;5034047;28;19925;-48
2021/12/05 03:52:12;;;;;;;;;;;3.30;99.90;;;;;;5034034;28;19925;-48
2021/12/05 03:54:39;;;;;;;;;;;3.20;99.90;;;;;;5034091;28;20362;-49
2021/12/05 03:57:06;;;;;;;;;;;3.40;99.90;;;;;;5035653;28;19925;-48
2021/12/05 03:59:35;;;;;;;;;;;3.50;99.90;;;;;;5053392;28;20656;-48
2021/12/05 04:02:03;;;;;;;;;;;3.60;99.90;;;;;;5053134;28;19955;-51
2021/12/05 04:04:29;;;;;;;;;;;3.40;99.90;;;;;;5048290;28;19948;-48
2021/12/05 04:06:56;;;;;;;;;;;3.50;99.90;;;;;;5033974;28;20380;-48
2021/12/05 04:09:23;;;;;;;;;;;3.40;99.90;;;;;;5033550;28;19972;-48
2021/12/05 04:11:57;;;;;;;;;;;3.50;99.90;;;;;;5034454;28;19971;-48
2021/12/05 04:14:25;;;;;;;;;;;3.50;99.90;;;;;;5034067;28;19925;-48
2021/12/05 04:16:54;;;;;;;;;;;3.80;99.90;;;;;;5033469;28;19971;-48
2021/12/05 04:19:22;;;;;;;;;;;3.90;99.90;;;;;;5050422;28;19925;-49
2021/12/05 04:21:49;;;;;;;;;;;3.90;99.90;;;;;;5053080;28;19929;-48
2021/12/05 04:24:16;;;;;;;;;;;3.80;99.90;;;;;;5045511;28;19971;-49
2021/12/05 04:26:43;;;;;;;;;;;3.90;99.90;;;;;;5034508;28;20358;-48
2021/12/05 04:29:10;;;;;;;;;;;3.90;99.90;;;;;;5033373;28;19925;-49
2021/12/05 04:31:39;;;;;;;;;;;3.90;99.90;;;;;;5032923;28;19925;-48
2021/12/05 04:34:07;;;;;;;;;;;3.80;99.90;;;;;;5035405;28;19925;-48
2021/12/05 04:36:34;;;;;;;;;;;3.90;99.90;;;;;;5052929;28;19924;-48
2021/12/05 04:39:01;;;;;;;;;;;4.10;99.90;;;;;;5043042;28;19925;-48
2021/12/05 04:41:28;;;;;;;;;;;4.40;99.90;;;;;;5034222;28;19975;-48
2021/12/05 04:43:54;;;;;;;;;;;4.20;99.90;;;;;;5033002;28;19988;-48
2021/12/05 04:46:23;;;;;;;;;;;4.10;99.90;;;;;;5032945;28;19971;-48
2021/12/05 04:48:52;;;;;;;;;;;4.00;99.90;;;;;;5032917;28;19925;-48
2021/12/05 04:51:21;;;;;;;;;;;4.00;99.90;;;;;;5037884;28;19924;-48
2021/12/05 04:53:48;;;;;;;;;;;4.20;99.90;;;;;;5052851;28;19978;-48
2021/12/05 04:56:16;;;;;;;;;;;4.20;99.90;;;;;;5045283;28;20448;-48
2021/12/05 04:58:43;;;;;;;;;;;4.00;99.90;;;;;;5049691;28;19976;-48
2021/12/05 05:01:09;;;;;;;;;;;4.20;99.90;;;;;;5052349;28;20517;-48
2021/12/05 05:03:38;;;;;;;;;;;4.00;99.90;;;;;;5052311;28;19924;-48
2021/12/05 05:06:09;;;;;;;;;;;4.00;99.90;;;;;;5052488;28;19929;-48
2021/12/05 05:08:40;;;;;;;;;;;3.90;99.90;;;;;;5041502;28;19932;-48
2021/12/05 05:11:08;;;;;;;;;;;3.90;99.90;;;;;;5049952;28;19925;-48
2021/12/05 05:13:35;;;;;;;;;;;3.90;99.90;;;;;;5052484;28;19990;-48
2021/12/05 05:16:04;;;;;;;;;;;3.90;99.90;;;;;;5044280;28;19970;-47
2021/12/05 05:18:39;;;;;;;;;;;3.80;99.90;;;;;;5052269;28;19928;-48
2021/12/05 05:21:12;;;;;;;;;;;3.90;99.90;;;;;;5051907;28;20433;-48
2021/12/05 05:24:00;;;;;;;;;;;3.90;99.90;;;;;;5051540;28;20410;-49
2021/12/05 05:26:51;;;;;;;;;;;4.00;99.90;;;;;;5052157;28;19928;-48
2021/12/05 05:40:36;;;;;;;;;;;3.90;99.90;;;;;;5051892;28;19927;-48
2021/12/05 05:46:06;;;;;;;;;;;3.70;99.90;;;;;;5018473;28;19921;-48
2021/12/05 05:48:40;;;;;;;;;;;3.90;99.90;;;;;;5042041;28;19932;-48
2021/12/05 05:51:07;;;;;;;;;;;4.00;99.90;;;;;;5034457;28;19944;-48
2021/12/05 05:53:34;;;;;;;;;;;4.00;99.90;;;;;;5049528;28;19925;-48
2021/12/05 05:56:03;;;;;;;;;;;3.80;99.90;;;;;;5055624;28;20318;-48
2021/12/05 05:58:39;;;;;;;;;;;3.80;99.90;;;;;;5056002;28;19925;-48
2021/12/05 06:01:09;;;;;;;;;;;3.70;99.90;;;;;;5055781;28;19925;-48
2021/12/05 06:03:36;;;;;;;;;;;3.70;99.90;;;;;;5052209;28;19925;-48
2021/12/05 06:06:04;;;;;;;;;;;3.70;99.90;;;;;;5036030;28;19926;-48
2021/12/05 06:08:32;;;;;;;;;;;3.80;99.90;;;;;;5048957;28;19925;-48
2021/12/05 06:11:00;;;;;;;;;;;3.80;99.90;;;;;;5055381;28;20345;-48
2021/12/05 06:13:29;;;;;;;;;;;3.80;99.90;;;;;;5055570;28;19925;-48
2021/12/05 06:15:56;;;;;;;;;;;3.80;99.90;;;;;;5055692;28;19932;-48
2021/12/05 06:18:26;;;;;;;;;;;3.70;99.90;;;;;;5055597;28;20015;-48
2021/12/05 06:20:53;;;;;;;;;;;3.70;99.90;;;;;;5054723;28;20547;-49
2021/12/05 06:23:21;;;;;;;;;;;3.30;99.90;;;;;;5055712;28;20400;-49
2021/12/05 06:25:49;;;;;;;;;;;3.30;99.90;;;;;;5055218;28;19924;-48
2021/12/05 06:28:18;;;;;;;;;;;3.40;99.90;;;;;;5055273;28;19925;-48
2021/12/05 06:30:52;;;;;;;;;;;3.40;99.90;;;;;;5043334;28;19979;-48
2021/12/05 06:39:17;;;;;;;;;;;3.50;99.90;;;;;;5035402;28;20020;-49
2021/12/05 06:41:55;;;;;;;;;;;3.50;99.90;;;;;;5035042;28;19925;-48
2021/12/05 06:47:10;;;;;;;;;;;3.40;99.90;;;;;;5035152;28;19975;-48
2021/12/05 06:49:37;;;;;;;;;;;3.10;99.90;;;;;;5035125;28;20020;-49
2021/12/05 06:52:04;;;;;;;;;;;3.10;99.90;;;;;;5034674;28;19960;-49
2021/12/05 06:54:31;;;;;;;;;;;3.10;99.90;;;;;;5037121;28;19979;-48
2021/12/05 06:56:57;;;;;;;;;;;3.20;99.90;;;;;;5044586;28;19925;-48
2021/12/05 06:59:24;;;;;;;;;;;3.30;99.90;;;;;;5054690;28;19924;-48
2021/12/05 07:01:51;;;;;;;;;;;3.30;99.90;;;;;;5054241;28;19928;-49
2021/12/05 07:04:43;;;;;;;;;;;3.20;99.90;;;;;;5051911;28;19940;-49
2021/12/05 07:07:18;;;;;;;;;;;3.40;99.90;;;;;;5034858;28;20012;-48
2021/12/05 07:09:44;;;;;;;;;;;3.40;99.90;;;;;;5034958;28;19969;-49
2021/12/05 07:15:02;;;;;;;;;;;3.40;99.90;;;;;;5024095;28;19966;-48
2021/12/05 07:20:06;;;;;;;;;;;3.40;99.90;;;;;;5041983;28;20015;-48
2021/12/05 07:22:42;;;;;;;;;;;3.50;99.90;;;;;;5034333;28;19925;-49
2021/12/05 07:25:13;;;;;;;;;;;3.60;99.90;;;;;;5038084;28;20244;-49
2021/12/05 07:41:25;;;;;;;;;;;3.60;99.90;;;;;;5085074;22;20000;-49
2021/12/05 07:43:51;;;;;;;;;;;3.60;99.90;;;;;;5090766;28;20377;-48
2021/12/05 07:46:18;;;;;;;;;;;3.70;99.90;;;;;;5093650;28;20393;-48
2021/12/05 07:48:46;;;;;;;;;;;3.70;99.90;;;;;;5093771;28;19928;-48
2021/12/05 07:51:24;;;;;;;;;;;3.70;99.90;;;;;;5093378;28;20461;-49
2021/12/05 07:53:56;;;;;;;;;;;3.80;99.90;;;;;;5093739;28;20405;-48
2021/12/05 07:56:26;;;;;;;;;;;3.80;99.90;;;;;;5094211;28;19964;-49
2021/12/05 07:59:05;;;;;;;;;;;3.80;99.90;;;;;;5091788;28;20458;-48
2021/12/05 08:15:18;;;;;;;;;;;3.80;99.90;;;;;;5090591;28;19927;-48
2021/12/05 08:17:51;;;;;;;;;;;3.70;99.90;;;;;;5091321;28;20031;-48
2021/12/05 08:20:19;;;;;;;;;;;3.60;99.90;;;;;;5092312;28;19934;-47
2021/12/05 08:22:47;;;;;;;;;;;3.60;99.90;;;;;;5093151;28;19946;-49
2021/12/05 08:25:14;;;;;;;;;;;3.70;99.90;;;;;;5092987;28;19924;-48
2021/12/05 08:27:48;;;;;;;;;;;3.60;99.90;;;;;;5092520;28;19924;-48
2021/12/05 08:30:22;;;;;;;;;;;3.60;99.90;;;;;;5092194;28;19932;-48
2021/12/05 08:33:08;;;;;;;;;;;3.70;99.90;;;;;;5092897;28;19971;-48
2021/12/05 08:36:00;;;;;;;;;;;3.60;99.90;;;;;;5091144;28;19935;-48
2021/12/05 08:44:33;;;;;;;;;;;3.80;99.90;;;;;;5089411;28;20002;-48
2021/12/05 09:52:06;;;;;;;;;;;5.80;99.90;;;;;;5137256;27;19953;-48
2021/12/05 10:02:49;;;;;;;;;;;6.50;99.90;;;;;;5150429;27;20312;-50
2021/12/05 10:11:11;;;;;;;;;;;6.30;99.90;;;;;;5147343;27;19929;-49
2021/12/05 10:13:54;;;;;;;;;;;6.20;99.90;;;;;;5142692;27;19924;-49
2021/12/05 10:16:38;;;;;;;;;;;6.30;99.90;;;;;;5139465;27;19923;-48
2021/12/05 10:19:37;;;;;;;;;;;6.30;99.90;;;;;;5135959;27;19923;-48
2021/12/05 10:36:05;;;;;;;;;;;6.40;99.90;;;;;;5065149;28;19928;-49
2021/12/05 10:38:40;;;;;;;;;;;6.40;99.90;;;;;;5120126;28;19924;-48
2021/12/05 10:41:21;;;;;;;;;;;6.50;99.90;;;;;;5118313;27;19932;-49
2021/12/05 10:43:48;;;;;;;;;;;6.60;99.90;;;;;;5119234;27;20332;-47
2021/12/05 10:46:16;;;;;;;;;;;6.70;99.90;;;;;;5126882;27;19923;-48
2021/12/05 10:48:45;;;;;;;;;;;6.60;99.90;;;;;;5120493;27;19969;-48
2021/12/05 10:51:14;;;;;;;;;;;6.70;99.90;;;;;;5124188;27;19977;-48
2021/12/05 10:53:43;;;;;;;;;;;6.80;99.90;;;;;;5117546;27;19930;-48
2021/12/05 10:56:12;;;;;;;;;;;7.10;99.90;;;;;;5113564;28;19924;-46
2021/12/05 10:58:42;;;;;;;;;;;7.30;99.90;;;;;;5113297;28;19924;-46
2021/12/05 11:01:14;;;;;;;;;;;7.60;99.90;;;;;;5115556;27;20351;-46
2021/12/05 11:03:41;;;;;;;;;;;7.60;99.90;;;;;;5123799;27;19923;-46
2021/12/05 11:06:21;;;;;;;;;;;7.30;99.90;;;;;;5127352;27;19923;-45
2021/12/05 11:08:52;;;;;;;;;;;7.20;99.90;;;;;;5116586;27;19924;-46
2021/12/05 11:11:19;;;;;;;;;;;7.10;99.90;;;;;;5120862;27;19924;-48
2021/12/05 11:13:46;;;;;;;;;;;7.40;99.90;;;;;;5118072;27;19966;-46
2021/12/05 11:16:31;;;;;;;;;;;7.50;99.90;;;;;;5125404;27;20304;-46
2021/12/05 11:18:58;;;;;;;;;;;7.60;99.90;;;;;;5122150;27;19945;-47
2021/12/05 11:21:30;;;;;;;;;;;7.70;99.90;;;;;;5121802;27;19967;-46
2021/12/05 11:24:17;;;;;;;;;;;7.70;99.90;;;;;;5121734;27;20389;-46
2021/12/05 11:26:47;;;;;;;;;;;7.70;99.90;;;;;;5108415;28;19927;-45
2021/12/05 11:29:14;;;;;;;;;;;7.50;99.90;;;;;;5113496;28;19923;-46
2021/12/05 11:31:40;;;;;;;;;;;7.50;99.90;;;;;;5113159;28;19953;-46
2021/12/05 11:34:07;;;;;;;;;;;7.50;99.90;;;;;;5113768;28;19928;-46
2021/12/05 11:36:35;;;;;;;;;;;7.40;99.90;;;;;;5114769;27;19949;-47
2021/12/05 11:39:17;;;;;;;;;;;7.50;99.90;;;;;;5118989;27;19933;-47
2021/12/05 11:41:44;;;;;;;;;;;7.70;99.90;;;;;;5121486;27;20459;-47
2021/12/05 11:44:16;;;;;;;;;;;7.80;99.90;;;;;;5125200;27;19924;-47
2021/12/05 11:46:44;;;;;;;;;;;7.90;99.90;;;;;;5114896;27;19928;-47
2021/12/05 11:49:13;;;;;;;;;;;7.90;99.90;;;;;;5132367;27;19924;-46
2021/12/05 11:51:44;;;;;;;;;;;7.70;99.90;;;;;;5124881;27;19993;-47
2021/12/05 11:54:12;;;;;;;;;;;7.60;99.90;;;;;;5122925;27;20415;-46
2021/12/05 11:56:41;;;;;;;;;;;7.70;99.90;;;;;;5117466;27;19931;-47
2021/12/05 11:59:10;;;;;;;;;;;7.80;99.90;;;;;;5117051;27;19947;-46
2021/12/05 12:01:40;;;;;;;;;;;7.80;99.90;;;;;;5127929;27;19923;-46
2021/12/05 12:04:07;;;;;;;;;;;7.80;99.90;;;;;;5117728;27;19949;-46
2021/12/05 12:06:34;;;;;;;;;;;7.80;99.90;;;;;;5122128;27;19924;-46
2021/12/05 12:09:02;;;;;;;;;;;7.90;99.90;;;;;;5130319;27;19931;-46
2021/12/05 12:11:29;;;;;;;;;;;8.00;99.90;;;;;;5125193;27;19931;-46
2021/12/05 12:13:55;;;;;;;;;;;8.10;99.90;;;;;;5122621;27;19923;-47
2021/12/05 12:16:23;;;;;;;;;;;8.00;99.90;;;;;;5118536;27;19927;-47
2021/12/05 12:18:52;;;;;;;;;;;8.10;99.90;;;;;;5114890;27;19923;-46
2021/12/05 12:21:21;;;;;;;;;;;8.20;99.90;;;;;;5115967;27;19928;-47
2021/12/05 12:23:50;;;;;;;;;;;8.20;99.90;;;;;;5115979;27;19927;-49
2021/12/05 12:26:17;;;;;;;;;;;8.30;99.90;;;;;;5118164;27;19931;-48
2021/12/05 12:28:44;;;;;;;;;;;8.40;99.90;;;;;;5116321;27;19969;-51
2021/12/05 12:31:13;;;;;;;;;;;8.30;99.90;;;;;;5123676;27;20056;-49
2021/12/05 12:33:41;;;;;;;;;;;8.20;99.90;;;;;;5125077;27;20448;-46
2021/12/05 12:36:10;;;;;;;;;;;8.10;99.90;;;;;;5122715;27;19977;-47
2021/12/05 12:38:39;;;;;;;;;;;8.00;99.90;;;;;;5111614;28;19923;-47
2021/12/05 12:41:12;;;;;;;;;;;8.40;99.90;;;;;;5115592;27;20290;-46
2021/12/05 12:43:43;;;;;;;;;;;8.50;99.90;;;;;;5113727;28;20014;-46
2021/12/05 12:46:21;;;;;;;;;;;7.90;99.90;;;;;;5118125;27;19977;-47
2021/12/05 12:48:49;;;;;;;;;;;7.80;99.90;;;;;;5116119;27;19949;-47
2021/12/05 12:51:32;;;;;;;;;;;7.80;99.90;;;;;;5120135;27;19973;-47
2021/12/05 12:54:01;;;;;;;;;;;8.00;99.90;;;;;;5118104;27;19923;-46
2021/12/05 12:56:28;;;;;;;;;;;8.00;99.90;;;;;;5133399;27;19923;-46
2021/12/05 12:58:58;;;;;;;;;;;8.00;99.90;;;;;;5132978;27;19974;-47
2021/12/05 13:01:40;;;;;;;;;;;7.80;99.90;;;;;;5132267;27;20006;-47
2021/12/05 13:04:36;;;;;;;;;;;7.70;99.90;;;;;;5130636;27;20006;-49
2021/12/05 13:10:04;;;;;;;;;;;7.80;99.90;;;;;;5112912;28;19934;-49
2021/12/05 13:12:35;;;;;;;;;;;7.80;99.90;;;;;;5112269;28;19976;-48
2021/12/05 13:15:04;;;;;;;;;;;7.60;99.90;;;;;;5112654;28;19924;-48
2021/12/05 13:17:38;;;;;;;;;;;7.70;99.90;;;;;;5111514;28;20354;-46
2021/12/05 13:20:05;;;;;;;;;;;7.80;99.90;;;;;;5111779;28;19923;-48
2021/12/05 13:22:33;;;;;;;;;;;7.70;99.90;;;;;;5111827;28;19977;-48
2021/12/05 13:25:05;;;;;;;;;;;7.70;99.90;;;;;;5112671;28;19974;-47
2021/12/05 13:27:32;;;;;;;;;;;8.00;99.90;;;;;;5112459;28;19930;-49
2021/12/05 13:29:59;;;;;;;;;;;7.90;99.90;;;;;;5112547;28;19963;-47
2021/12/05 13:32:29;;;;;;;;;;;7.50;99.90;;;;;;5111514;28;20385;-48
2021/12/05 13:34:58;;;;;;;;;;;7.50;99.90;;;;;;5115011;28;19923;-48
2021/12/05 13:37:37;;;;;;;;;;;7.60;99.90;;;;;;5113687;28;19924;-48
2021/12/05 13:40:09;;;;;;;;;;;7.70;99.90;;;;;;5112106;28;19923;-49
2021/12/05 13:45:10;;;;;;;;;;;7.80;99.90;;;;;;5113268;22;19939;-52
2021/12/05 13:47:39;;;;;;;;;;;7.70;99.90;;;;;;5092264;28;19924;-52
2021/12/05 13:50:25;;;;;;;;;;;8.00;99.90;;;;;;5080773;28;19924;-51
2021/12/05 13:52:57;;;;;;;;;;;7.80;99.90;;;;;;5080732;28;19931;-52
2021/12/05 13:55:39;;;;;;;;;;;7.80;99.90;;;;;;5071704;28;20357;-52
2021/12/05 13:58:30;;;;;;;;;;;7.70;99.90;;;;;;5066796;28;20008;-52
2021/12/05 14:00:59;;;;;;;;;;;7.30;99.90;;;;;;5050621;28;19932;-52
2021/12/05 14:03:39;;;;;;;;;;;7.20;99.90;;;;;;5069326;28;19924;-52
2021/12/05 14:06:23;;;;;;;;;;;7.30;99.90;;;;;;5071837;28;19928;-52
2021/12/05 14:08:52;;;;;;;;;;;7.20;99.90;;;;;;5070913;28;19970;-52
2021/12/05 14:11:19;;;;;;;;;;;7.40;99.90;;;;;;5067482;28;20012;-51
2021/12/05 14:13:46;;;;;;;;;;;7.50;99.90;;;;;;5071787;28;20348;-52
2021/12/05 14:16:12;;;;;;;;;;;7.30;99.90;;;;;;5074140;28;19925;-52
2021/12/05 14:18:40;;;;;;;;;;;7.30;99.90;;;;;;5075014;28;19929;-51
2021/12/05 14:21:14;;;;;;;;;;;7.00;99.90;;;;;;5074057;28;19962;-52
2021/12/05 14:23:40;;;;;;;;;;;6.90;99.90;;;;;;5075414;28;19978;-52
2021/12/05 14:26:14;;;;;;;;;;;6.90;99.90;;;;;;5074780;28;19924;-52
2021/12/05 14:28:41;;;;;;;;;;;6.80;99.90;;;;;;5074632;28;19929;-52
2021/12/05 14:31:08;;;;;;;;;;;6.60;99.90;;;;;;5073641;28;19929;-52
2021/12/05 14:33:46;;;;;;;;;;;6.30;99.90;;;;;;5074987;28;19929;-52
2021/12/05 14:36:19;;;;;;;;;;;6.30;99.90;;;;;;5075120;28;19931;-51
2021/12/05 14:38:46;;;;;;;;;;;6.00;99.90;;;;;;5075115;28;19924;-54
2021/12/05 14:41:12;;;;;;;;;;;6.00;99.90;;;;;;5073912;28;19970;-52
2021/12/05 14:43:40;;;;;;;;;;;5.90;99.90;;;;;;5074504;28;19989;-54
2021/12/05 14:46:07;;;;;;;;;;;5.80;99.90;;;;;;5075026;28;19978;-53
2021/12/05 14:48:34;;;;;;;;;;;5.40;99.90;;;;;;5074255;28;20394;-53
2021/12/05 14:51:02;;;;;;;;;;;5.40;99.90;;;;;;5074196;28;19977;-54
2021/12/05 14:53:29;;;;;;;;;;;5.60;99.90;;;;;;5074276;28;19961;-53
2021/12/05 14:55:58;;;;;;;;;;;5.80;99.90;;;;;;5074716;28;19935;-54
2021/12/05 14:58:27;;;;;;;;;;;5.90;99.90;;;;;;5074955;28;19936;-53
2021/12/05 15:00:58;;;;;;;;;;;5.80;99.90;;;;;;5059204;28;19978;-54
2021/12/05 15:03:25;;;;;;;;;;;5.50;99.90;;;;;;5074984;28;19924;-53
2021/12/05 15:05:53;;;;;;;;;;;5.50;99.90;;;;;;5074719;28;19970;-52
2021/12/05 15:08:22;;;;;;;;;;;5.30;99.90;;;;;;5073912;28;20378;-53
2021/12/05 15:10:51;;;;;;;;;;;5.20;99.90;;;;;;5074259;28;19924;-53
2021/12/05 15:13:18;;;;;;;;;;;5.20;99.90;;;;;;5075780;28;19932;-52
2021/12/05 15:15:46;;;;;;;;;;;5.30;99.90;;;;;;5075140;28;19947;-55
2021/12/05 15:18:16;;;;;;;;;;;5.10;99.90;;;;;;5075404;28;20319;-53
2021/12/05 15:20:43;;;;;;;;;;;5.00;99.90;;;;;;5074834;28;19925;-54
2021/12/05 15:23:10;;;;;;;;;;;4.90;99.90;;;;;;5076646;28;19928;-54
2021/12/05 15:25:38;;;;;;;;;;;5.10;99.90;;;;;;5076853;28;19924;-53
2021/12/05 15:28:07;;;;;;;;;;;5.10;99.90;;;;;;5085537;28;19924;-53
2021/12/05 15:30:37;;;;;;;;;;;5.10;99.90;;;;;;5090507;28;19928;-54
2021/12/05 15:33:05;;;;;;;;;;;5.10;99.90;;;;;;5091192;28;19924;-58
2021/12/05 15:35:34;;;;;;;;;;;5.20;99.90;;;;;;5090952;28;19925;-54
2021/12/05 15:38:03;;;;;;;;;;;5.20;99.90;;;;;;5090933;28;19925;-52
2021/12/05 15:40:30;;;;;;;;;;;5.20;99.90;;;;;;5090408;28;19954;-53
2021/12/05 15:42:59;;;;;;;;;;;5.20;99.90;;;;;;5081143;28;20441;-53
2021/12/05 15:45:26;;;;;;;;;;;5.20;99.90;;;;;;5073704;28;19934;-53
2021/12/05 15:47:54;;;;;;;;;;;5.20;99.90;;;;;;5073773;28;19978;-54
2021/12/05 15:50:22;;;;;;;;;;;5.20;99.90;;;;;;5073243;28;19974;-56
2021/12/05 15:52:52;;;;;;;;;;;5.20;99.90;;;;;;5073654;28;19978;-53
2021/12/05 15:55:20;;;;;;;;;;;5.10;99.90;;;;;;5073452;28;19978;-53
2021/12/05 15:57:51;;;;;;;;;;;5.00;99.90;;;;;;5073450;28;20309;-52
2021/12/05 16:00:26;;;;;;;;;;;5.00;99.90;;;;;;5072718;28;20579;-52
2021/12/05 16:02:57;;;;;;;;;;;5.00;99.90;;;;;;5072320;28;19924;-53
2021/12/05 16:05:24;;;;;;;;;;;5.00;99.90;;;;;;5072424;28;19936;-52
2021/12/05 16:08:01;;;;;;;;;;;5.00;99.90;;;;;;5073368;28;20314;-54
2021/12/05 16:10:27;;;;;;;;;;;4.90;99.90;;;;;;5072658;28;19929;-52
2021/12/05 16:12:54;;;;;;;;;;;5.00;99.90;;;;;;5072470;28;19932;-52
2021/12/05 16:15:26;;;;;;;;;;;5.00;99.90;;;;;;5068498;28;19928;-53
2021/12/05 16:17:58;;;;;;;;;;;5.10;99.90;;;;;;5072915;28;20011;-53
2021/12/05 16:20:27;;;;;;;;;;;5.10;99.90;;;;;;5072515;28;19944;-54
2021/12/05 16:23:06;;;;;;;;;;;5.00;99.90;;;;;;5072444;28;20451;-53
2021/12/05 16:25:33;;;;;;;;;;;5.00;99.90;;;;;;5072324;28;20198;-53
2021/12/05 16:28:02;;;;;;;;;;;4.90;99.90;;;;;;5072940;28;20448;-53
2021/12/05 16:30:32;;;;;;;;;;;4.70;99.90;;;;;;5071780;28;19924;-53
2021/12/05 16:32:59;;;;;;;;;;;4.60;99.90;;;;;;5065949;28;19933;-52
2021/12/05 16:35:26;;;;;;;;;;;4.70;99.90;;;;;;5069992;28;20429;-53
2021/12/05 16:37:55;;;;;;;;;;;4.70;99.90;;;;;;5072173;28;19924;-53
2021/12/05 16:40:23;;;;;;;;;;;4.80;99.90;;;;;;5072170;28;19932;-53
2021/12/05 16:43:02;;;;;;;;;;;4.80;99.90;;;;;;5072423;28;19925;-53
2021/12/05 16:45:34;;;;;;;;;;;4.50;99.90;;;;;;5072658;28;20440;-55
2021/12/05 16:48:00;;;;;;;;;;;4.40;99.90;;;;;;5072557;28;19978;-53
2021/12/05 16:50:27;;;;;;;;;;;4.50;99.90;;;;;;5066903;28;19978;-54
2021/12/05 16:52:55;;;;;;;;;;;4.60;99.90;;;;;;5072793;28;20045;-53
2021/12/05 16:55:27;;;;;;;;;;;4.60;99.90;;;;;;5070964;28;19925;-53
2021/12/05 16:57:59;;;;;;;;;;;4.60;99.90;;;;;;5072567;28;20386;-54
2021/12/05 17:00:27;;;;;;;;;;;4.70;99.90;;;;;;5063938;28;19928;-53
2021/12/05 17:02:54;;;;;;;;;;;4.60;99.90;;;;;;5072415;28;19925;-53
2021/12/05 17:05:23;;;;;;;;;;;4.70;99.90;;;;;;5057961;28;20329;-54
2021/12/05 17:07:56;;;;;;;;;;;4.70;99.90;;;;;;5060885;28;19924;-53
2021/12/05 17:10:32;;;;;;;;;;;4.70;99.90;;;;;;5071591;28;20421;-52
2021/12/05 17:13:07;;;;;;;;;;;4.60;99.90;;;;;;5072422;28;20283;-52
2021/12/05 17:15:35;;;;;;;;;;;4.60;99.90;;;;;;5052583;28;19936;-54
2021/12/05 17:18:03;;;;;;;;;;;4.70;99.90;;;;;;5064623;28;19924;-53
2021/12/05 17:20:31;;;;;;;;;;;4.70;99.90;;;;;;5071045;28;19932;-53
2021/12/05 17:23:00;;;;;;;;;;;4.80;99.90;;;;;;5068908;28;19970;-53
2021/12/05 17:25:28;;;;;;;;;;;4.80;99.90;;;;;;5061612;28;20386;-52
2021/12/05 17:27:56;;;;;;;;;;;4.70;99.90;;;;;;5072693;28;19925;-53
2021/12/05 17:30:23;;;;;;;;;;;4.60;99.90;;;;;;5081695;28;19932;-53
2021/12/05 17:32:53;;;;;;;;;;;4.30;99.90;;;;;;5083669;28;19978;-53
2021/12/05 17:35:20;;;;;;;;;;;4.40;99.90;;;;;;5085538;28;19925;-52
2021/12/05 17:37:50;;;;;;;;;;;4.20;99.90;;;;;;5076159;28;19978;-53
2021/12/05 17:40:17;;;;;;;;;;;4.20;99.90;;;;;;5066967;28;19924;-53
2021/12/05 17:42:44;;;;;;;;;;;4.20;99.90;;;;;;5071395;28;20747;-52
2021/12/05 17:45:14;;;;;;;;;;;4.30;99.90;;;;;;5071653;28;19924;-53
2021/12/05 17:47:41;;;;;;;;;;;4.40;99.90;;;;;;5054965;28;19925;-53
2021/12/05 17:50:09;;;;;;;;;;;4.60;99.90;;;;;;5055196;28;19929;-53
2021/12/05 17:52:37;;;;;;;;;;;4.50;99.90;;;;;;5055382;28;20395;-54
2021/12/05 17:55:09;;;;;;;;;;;4.30;99.90;;;;;;5055776;28;19925;-54
2021/12/05 17:57:39;;;;;;;;;;;4.00;99.90;;;;;;5056004;28;20319;-53
2021/12/05 18:00:15;;;;;;;;;;;4.10;99.90;;;;;;5066652;28;19936;-52
2021/12/05 18:02:45;;;;;;;;;;;4.20;99.90;;;;;;5075554;28;19924;-52
2021/12/05 18:05:14;;;;;;;;;;;4.30;99.90;;;;;;5075104;28;19924;-52
2021/12/05 18:07:41;;;;;;;;;;;4.30;99.90;;;;;;5073572;28;20372;-54
2021/12/05 18:10:08;;;;;;;;;;;4.40;99.90;;;;;;5075302;28;19924;-53
2021/12/05 18:12:35;;;;;;;;;;;4.30;99.90;;;;;;5074937;28;19929;-54
2021/12/05 18:15:04;;;;;;;;;;;4.20;99.90;;;;;;5065209;28;19925;-53
2021/12/05 18:17:30;;;;;;;;;;;4.30;99.90;;;;;;5055603;28;19924;-53
2021/12/05 18:19:59;;;;;;;;;;;4.20;99.90;;;;;;5055237;28;19971;-53
2021/12/05 18:22:25;;;;;;;;;;;4.30;99.90;;;;;;5071177;28;19931;-53
2021/12/05 18:24:52;;;;;;;;;;;4.10;99.90;;;;;;5075422;28;20309;-52
2021/12/05 18:27:19;;;;;;;;;;;4.10;99.90;;;;;;5074865;28;20390;-53
2021/12/05 18:29:46;;;;;;;;;;;4.20;99.90;;;;;;5067401;28;19974;-54
2021/12/05 18:32:14;;;;;;;;;;;3.90;99.90;;;;;;5054534;28;19980;-53
2021/12/05 18:34:41;;;;;;;;;;;3.90;99.90;;;;;;5056027;28;19975;-53
2021/12/05 18:37:10;;;;;;;;;;;3.90;99.90;;;;;;5055283;28;19924;-52
2021/12/05 18:39:39;;;;;;;;;;;3.80;99.90;;;;;;5071890;28;19951;-54
2021/12/05 18:42:09;;;;;;;;;;;3.80;99.90;;;;;;5071420;28;19928;-54
2021/12/05 18:44:40;;;;;;;;;;;3.80;99.90;;;;;;5074672;28;19928;-54
2021/12/05 18:47:07;;;;;;;;;;;3.80;99.90;;;;;;5073762;28;19963;-52
2021/12/05 18:49:34;;;;;;;;;;;3.80;99.90;;;;;;5059426;28;20379;-53
2021/12/05 18:52:02;;;;;;;;;;;3.80;99.90;;;;;;5067809;28;19932;-53
2021/12/05 18:54:30;;;;;;;;;;;3.90;99.90;;;;;;5073777;28;19925;-53
2021/12/05 18:56:58;;;;;;;;;;;3.80;99.90;;;;;;5075495;28;19924;-53
2021/12/05 18:59:26;;;;;;;;;;;3.80;99.90;;;;;;5062790;28;19925;-53
2021/12/05 19:04:41;;;;;;;;;;;3.70;99.90;;;;;;5064234;28;20470;-52